sensor_id;sensor_type;location;lat;lon;timestamp;P1;durP1;ratioP1;P2;durP2;ratioP2
37907;SDS011;23740;51.550;6.846;2024-03-23T00:54:56;3.28;;;1.23;;
37907;SDS011;23740;51.550;6.846;2024-03-23T00:59:48;2.65;;;1.30;;
37907;SDS011;23740;51.550;6.846;2024-03-23T01:02:14;4.15;;;1.90;;
37907;SDS011;23740;51.550;6.846;2024-03-23T01:04:40;5.28;;;1.98;;
37907;SDS011;23740;51.550;6.846;2024-03-23T01:07:07;4.97;;;1.52;;
37907;SDS011;23740;51.550;6.846;2024-03-23T01:09:33;7.45;;;1.70;;
37907;SDS011;23740;51.550;6.846;2024-03-23T01:12:00;3.20;;;1.40;;
37907;SDS011;23740;51.550;6.846;2024-03-23T01:14:27;3.95;;;1.60;;
37907;SDS011;23740;51.550;6.846;2024-03-23T01:16:53;3.38;;;1.30;;
37907;SDS011;23740;51.550;6.846;2024-03-23T01:19:19;3.40;;;1.02;;
37907;SDS011;23740;51.550;6.846;2024-03-23T01:21:46;4.72;;;2.47;;
37907;SDS011;23740;51.550;6.846;2024-03-23T01:24:12;2.53;;;1.40;;
37907;SDS011;23740;51.550;6.846;2024-03-23T01:26:39;3.30;;;1.23;;
37907;SDS011;23740;51.550;6.846;2024-03-23T01:29:06;3.90;;;1.10;;
37907;SDS011;23740;51.550;6.846;2024-03-23T01:31:32;4.78;;;1.88;;
37907;SDS011;23740;51.550;6.846;2024-03-23T01:33:59;3.65;;;1.75;;
37907;SDS011;23740;51.550;6.846;2024-03-23T01:36:25;4.00;;;1.63;;
37907;SDS011;23740;51.550;6.846;2024-03-23T01:38:51;4.82;;;1.40;;
37907;SDS011;23740;51.550;6.846;2024-03-23T01:41:18;4.40;;;1.13;;
37907;SDS011;23740;51.550;6.846;2024-03-23T01:43:44;3.58;;;1.23;;
37907;SDS011;23740;51.550;6.846;2024-03-23T01:46:11;6.55;;;2.15;;
37907;SDS011;23740;51.550;6.846;2024-03-23T01:48:37;8.95;;;1.80;;
37907;SDS011;23740;51.550;6.846;2024-03-23T01:51:04;3.80;;;1.50;;
37907;SDS011;23740;51.550;6.846;2024-03-23T01:53:30;4.90;;;1.77;;
37907;SDS011;23740;51.550;6.846;2024-03-23T01:55:56;6.10;;;1.80;;
37907;SDS011;23740;51.550;6.846;2024-03-23T01:58:22;5.40;;;1.33;;
37907;SDS011;23740;51.550;6.846;2024-03-23T02:00:49;2.78;;;1.40;;
37907;SDS011;23740;51.550;6.846;2024-03-23T02:03:25;2.97;;;1.35;;
37907;SDS011;23740;51.550;6.846;2024-03-23T02:05:52;5.22;;;1.33;;
37907;SDS011;23740;51.550;6.846;2024-03-23T02:10:46;3.60;;;1.45;;
37907;SDS011;23740;51.550;6.846;2024-03-23T02:15:39;7.60;;;2.10;;
37907;SDS011;23740;51.550;6.846;2024-03-23T02:18:06;3.85;;;1.55;;
37907;SDS011;23740;51.550;6.846;2024-03-23T02:20:34;3.75;;;1.73;;
37907;SDS011;23740;51.550;6.846;2024-03-23T02:25:27;4.57;;;1.60;;
37907;SDS011;23740;51.550;6.846;2024-03-23T02:27:53;3.83;;;1.55;;
37907;SDS011;23740;51.550;6.846;2024-03-23T02:30:20;3.78;;;1.17;;
37907;SDS011;23740;51.550;6.846;2024-03-23T02:32:46;6.03;;;1.55;;
37907;SDS011;23740;51.550;6.846;2024-03-23T02:35:13;3.72;;;1.52;;
37907;SDS011;23740;51.550;6.846;2024-03-23T02:37:39;3.97;;;1.50;;
37907;SDS011;23740;51.550;6.846;2024-03-23T02:40:07;4.43;;;1.55;;
37907;SDS011;23740;51.550;6.846;2024-03-23T02:42:34;5.07;;;1.42;;
37907;SDS011;23740;51.550;6.846;2024-03-23T02:45:00;4.78;;;1.77;;
37907;SDS011;23740;51.550;6.846;2024-03-23T02:47:26;4.40;;;1.50;;
37907;SDS011;23740;51.550;6.846;2024-03-23T02:49:53;7.13;;;1.85;;
37907;SDS011;23740;51.550;6.846;2024-03-23T02:52:20;2.17;;;0.82;;
37907;SDS011;23740;51.550;6.846;2024-03-23T02:54:47;4.00;;;1.73;;
37907;SDS011;23740;51.550;6.846;2024-03-23T02:57:13;5.18;;;1.85;;
37907;SDS011;23740;51.550;6.846;2024-03-23T02:59:40;3.08;;;1.48;;
37907;SDS011;23740;51.550;6.846;2024-03-23T03:02:07;6.05;;;1.60;;
37907;SDS011;23740;51.550;6.846;2024-03-23T03:04:33;1.67;;;1.30;;
37907;SDS011;23740;51.550;6.846;2024-03-23T03:06:59;4.68;;;1.52;;
37907;SDS011;23740;51.550;6.846;2024-03-23T03:09:34;2.60;;;1.10;;
37907;SDS011;23740;51.550;6.846;2024-03-23T03:12:01;3.30;;;1.70;;
37907;SDS011;23740;51.550;6.846;2024-03-23T03:14:28;5.22;;;1.85;;
37907;SDS011;23740;51.550;6.846;2024-03-23T03:19:20;4.72;;;1.48;;
37907;SDS011;23740;51.550;6.846;2024-03-23T03:21:47;2.63;;;1.55;;
37907;SDS011;23740;51.550;6.846;2024-03-23T03:24:13;4.40;;;1.90;;
37907;SDS011;23740;51.550;6.846;2024-03-23T03:26:39;2.25;;;1.27;;
37907;SDS011;23740;51.550;6.846;2024-03-23T03:29:06;4.88;;;1.80;;
37907;SDS011;23740;51.550;6.846;2024-03-23T03:31:33;4.10;;;1.35;;
37907;SDS011;23740;51.550;6.846;2024-03-23T03:33:59;2.63;;;1.23;;
37907;SDS011;23740;51.550;6.846;2024-03-23T03:36:25;4.00;;;1.60;;
37907;SDS011;23740;51.550;6.846;2024-03-23T03:38:52;2.92;;;1.35;;
37907;SDS011;23740;51.550;6.846;2024-03-23T03:41:18;5.22;;;1.67;;
37907;SDS011;23740;51.550;6.846;2024-03-23T03:43:44;5.15;;;1.27;;
37907;SDS011;23740;51.550;6.846;2024-03-23T03:46:10;2.97;;;1.90;;
37907;SDS011;23740;51.550;6.846;2024-03-23T03:48:38;4.53;;;1.35;;
37907;SDS011;23740;51.550;6.846;2024-03-23T03:53:30;5.85;;;1.63;;
37907;SDS011;23740;51.550;6.846;2024-03-23T03:55:56;4.13;;;1.08;;
37907;SDS011;23740;51.550;6.846;2024-03-23T03:58:22;5.25;;;2.05;;
37907;SDS011;23740;51.550;6.846;2024-03-23T04:00:49;4.20;;;1.42;;
37907;SDS011;23740;51.550;6.846;2024-03-23T04:05:42;4.90;;;1.48;;
37907;SDS011;23740;51.550;6.846;2024-03-23T04:08:08;4.13;;;1.90;;
37907;SDS011;23740;51.550;6.846;2024-03-23T04:10:35;4.30;;;1.10;;
37907;SDS011;23740;51.550;6.846;2024-03-23T04:13:01;3.72;;;1.00;;
37907;SDS011;23740;51.550;6.846;2024-03-23T04:15:30;5.15;;;1.20;;
37907;SDS011;23740;51.550;6.846;2024-03-23T04:17:56;2.90;;;1.35;;
37907;SDS011;23740;51.550;6.846;2024-03-23T04:20:22;3.75;;;1.33;;
37907;SDS011;23740;51.550;6.846;2024-03-23T04:22:49;7.95;;;1.77;;
37907;SDS011;23740;51.550;6.846;2024-03-23T04:27:41;3.33;;;1.50;;
37907;SDS011;23740;51.550;6.846;2024-03-23T04:30:08;7.43;;;1.65;;
37907;SDS011;23740;51.550;6.846;2024-03-23T04:32:36;2.55;;;1.23;;
37907;SDS011;23740;51.550;6.846;2024-03-23T04:35:02;4.22;;;1.63;;
37907;SDS011;23740;51.550;6.846;2024-03-23T04:37:31;6.65;;;2.20;;
37907;SDS011;23740;51.550;6.846;2024-03-23T04:39:59;6.50;;;1.83;;
37907;SDS011;23740;51.550;6.846;2024-03-23T04:42:26;5.65;;;1.92;;
37907;SDS011;23740;51.550;6.846;2024-03-23T04:44:53;5.20;;;1.90;;
37907;SDS011;23740;51.550;6.846;2024-03-23T04:47:20;2.75;;;1.85;;
37907;SDS011;23740;51.550;6.846;2024-03-23T04:49:46;6.88;;;1.80;;
37907;SDS011;23740;51.550;6.846;2024-03-23T04:52:12;8.25;;;2.88;;
37907;SDS011;23740;51.550;6.846;2024-03-23T04:54:39;4.97;;;2.17;;
37907;SDS011;23740;51.550;6.846;2024-03-23T04:59:32;6.70;;;1.92;;
37907;SDS011;23740;51.550;6.846;2024-03-23T05:01:59;3.90;;;1.95;;
37907;SDS011;23740;51.550;6.846;2024-03-23T05:04:25;6.78;;;1.98;;
37907;SDS011;23740;51.550;6.846;2024-03-23T05:06:52;6.95;;;2.53;;
37907;SDS011;23740;51.550;6.846;2024-03-23T05:09:18;8.73;;;2.45;;
37907;SDS011;23740;51.550;6.846;2024-03-23T05:11:45;9.27;;;2.63;;
37907;SDS011;23740;51.550;6.846;2024-03-23T05:14:12;6.28;;;1.98;;
37907;SDS011;23740;51.550;6.846;2024-03-23T05:16:39;2.92;;;2.10;;
37907;SDS011;23740;51.550;6.846;2024-03-23T05:19:06;5.93;;;2.60;;
37907;SDS011;23740;51.550;6.846;2024-03-23T05:21:32;4.13;;;2.72;;
37907;SDS011;23740;51.550;6.846;2024-03-23T05:23:58;8.63;;;2.92;;
37907;SDS011;23740;51.550;6.846;2024-03-23T05:26:25;5.90;;;1.92;;
37907;SDS011;23740;51.550;6.846;2024-03-23T05:28:51;4.90;;;2.30;;
37907;SDS011;23740;51.550;6.846;2024-03-23T05:31:24;4.40;;;2.17;;
37907;SDS011;23740;51.550;6.846;2024-03-23T05:33:50;5.78;;;2.80;;
37907;SDS011;23740;51.550;6.846;2024-03-23T05:36:17;5.00;;;2.55;;
37907;SDS011;23740;51.550;6.846;2024-03-23T05:38:43;5.22;;;2.67;;
37907;SDS011;23740;51.550;6.846;2024-03-23T05:41:10;5.55;;;2.47;;
37907;SDS011;23740;51.550;6.846;2024-03-23T05:43:36;6.07;;;3.13;;
37907;SDS011;23740;51.550;6.846;2024-03-23T05:46:02;6.35;;;2.67;;
37907;SDS011;23740;51.550;6.846;2024-03-23T05:48:30;7.10;;;2.85;;
37907;SDS011;23740;51.550;6.846;2024-03-23T05:50:57;6.80;;;2.63;;
37907;SDS011;23740;51.550;6.846;2024-03-23T05:53:23;3.97;;;1.88;;
37907;SDS011;23740;51.550;6.846;2024-03-23T05:55:51;6.80;;;3.08;;
37907;SDS011;23740;51.550;6.846;2024-03-23T05:58:19;6.82;;;2.80;;
37907;SDS011;23740;51.550;6.846;2024-03-23T06:00:50;6.22;;;2.90;;
37907;SDS011;23740;51.550;6.846;2024-03-23T06:03:23;6.32;;;3.13;;
37907;SDS011;23740;51.550;6.846;2024-03-23T06:05:50;9.35;;;2.72;;
37907;SDS011;23740;51.550;6.846;2024-03-23T06:08:16;5.43;;;3.03;;
37907;SDS011;23740;51.550;6.846;2024-03-23T06:10:43;6.10;;;2.53;;
37907;SDS011;23740;51.550;6.846;2024-03-23T06:13:10;7.90;;;3.28;;
37907;SDS011;23740;51.550;6.846;2024-03-23T06:15:37;7.75;;;2.97;;
37907;SDS011;23740;51.550;6.846;2024-03-23T06:18:03;7.03;;;2.83;;
37907;SDS011;23740;51.550;6.846;2024-03-23T06:20:30;6.50;;;2.63;;
37907;SDS011;23740;51.550;6.846;2024-03-23T06:22:57;5.18;;;2.33;;
37907;SDS011;23740;51.550;6.846;2024-03-23T06:25:23;9.73;;;3.05;;
37907;SDS011;23740;51.550;6.846;2024-03-23T06:27:50;4.13;;;2.60;;
37907;SDS011;23740;51.550;6.846;2024-03-23T06:30:16;6.25;;;2.35;;
37907;SDS011;23740;51.550;6.846;2024-03-23T06:32:42;7.70;;;3.20;;
37907;SDS011;23740;51.550;6.846;2024-03-23T06:35:09;5.82;;;2.35;;
37907;SDS011;23740;51.550;6.846;2024-03-23T06:37:35;4.78;;;2.67;;
37907;SDS011;23740;51.550;6.846;2024-03-23T06:42:30;4.57;;;2.30;;
37907;SDS011;23740;51.550;6.846;2024-03-23T06:44:57;6.18;;;2.13;;
37907;SDS011;23740;51.550;6.846;2024-03-23T06:47:23;6.28;;;2.63;;
37907;SDS011;23740;51.550;6.846;2024-03-23T06:49:51;7.95;;;2.40;;
37907;SDS011;23740;51.550;6.846;2024-03-23T06:52:17;4.18;;;2.65;;
37907;SDS011;23740;51.550;6.846;2024-03-23T06:54:43;8.50;;;2.83;;
37907;SDS011;23740;51.550;6.846;2024-03-23T06:57:11;5.78;;;2.35;;
37907;SDS011;23740;51.550;6.846;2024-03-23T06:59:37;4.75;;;2.55;;
37907;SDS011;23740;51.550;6.846;2024-03-23T07:02:04;7.68;;;2.95;;
37907;SDS011;23740;51.550;6.846;2024-03-23T07:04:30;6.05;;;2.53;;
37907;SDS011;23740;51.550;6.846;2024-03-23T07:06:57;5.63;;;2.58;;
37907;SDS011;23740;51.550;6.846;2024-03-23T07:09:23;6.78;;;2.58;;
37907;SDS011;23740;51.550;6.846;2024-03-23T07:11:53;7.75;;;3.60;;
37907;SDS011;23740;51.550;6.846;2024-03-23T07:14:20;9.25;;;3.33;;
37907;SDS011;23740;51.550;6.846;2024-03-23T07:16:47;9.48;;;3.33;;
37907;SDS011;23740;51.550;6.846;2024-03-23T07:19:15;5.32;;;2.38;;
37907;SDS011;23740;51.550;6.846;2024-03-23T07:21:42;4.63;;;2.78;;
37907;SDS011;23740;51.550;6.846;2024-03-23T07:24:11;9.40;;;3.70;;
37907;SDS011;23740;51.550;6.846;2024-03-23T07:26:37;6.68;;;3.30;;
37907;SDS011;23740;51.550;6.846;2024-03-23T07:29:04;6.13;;;2.72;;
37907;SDS011;23740;51.550;6.846;2024-03-23T07:31:31;7.45;;;3.53;;
37907;SDS011;23740;51.550;6.846;2024-03-23T07:33:57;7.90;;;4.05;;
37907;SDS011;23740;51.550;6.846;2024-03-23T07:36:23;7.18;;;3.05;;
37907;SDS011;23740;51.550;6.846;2024-03-23T07:38:50;8.20;;;3.47;;
37907;SDS011;23740;51.550;6.846;2024-03-23T07:41:24;5.88;;;3.13;;
37907;SDS011;23740;51.550;6.846;2024-03-23T07:43:53;5.28;;;3.00;;
37907;SDS011;23740;51.550;6.846;2024-03-23T07:46:20;9.65;;;3.25;;
37907;SDS011;23740;51.550;6.846;2024-03-23T07:48:47;11.85;;;4.38;;
37907;SDS011;23740;51.550;6.846;2024-03-23T07:51:16;7.13;;;3.28;;
37907;SDS011;23740;51.550;6.846;2024-03-23T07:53:43;7.40;;;3.20;;
37907;SDS011;23740;51.550;6.846;2024-03-23T07:56:10;7.45;;;3.20;;
37907;SDS011;23740;51.550;6.846;2024-03-23T07:58:37;9.50;;;3.55;;
37907;SDS011;23740;51.550;6.846;2024-03-23T08:01:04;9.45;;;3.60;;
37907;SDS011;23740;51.550;6.846;2024-03-23T08:03:31;7.63;;;2.92;;
37907;SDS011;23740;51.550;6.846;2024-03-23T08:05:57;7.72;;;2.92;;
37907;SDS011;23740;51.550;6.846;2024-03-23T08:08:25;8.02;;;2.97;;
37907;SDS011;23740;51.550;6.846;2024-03-23T08:10:51;7.25;;;2.90;;
37907;SDS011;23740;51.550;6.846;2024-03-23T08:13:18;6.38;;;2.70;;
37907;SDS011;23740;51.550;6.846;2024-03-23T08:18:12;9.93;;;3.08;;
37907;SDS011;23740;51.550;6.846;2024-03-23T08:20:38;7.28;;;2.88;;
37907;SDS011;23740;51.550;6.846;2024-03-23T08:23:06;5.13;;;2.47;;
37907;SDS011;23740;51.550;6.846;2024-03-23T08:25:32;7.28;;;2.83;;
37907;SDS011;23740;51.550;6.846;2024-03-23T08:27:59;7.97;;;2.53;;
37907;SDS011;23740;51.550;6.846;2024-03-23T08:30:25;8.63;;;2.47;;
37907;SDS011;23740;51.550;6.846;2024-03-23T08:32:52;7.30;;;2.92;;
37907;SDS011;23740;51.550;6.846;2024-03-23T08:35:18;5.35;;;2.22;;
37907;SDS011;23740;51.550;6.846;2024-03-23T08:37:45;5.65;;;2.70;;
37907;SDS011;23740;51.550;6.846;2024-03-23T08:40:13;7.10;;;2.47;;
37907;SDS011;23740;51.550;6.846;2024-03-23T08:42:39;4.93;;;1.98;;
37907;SDS011;23740;51.550;6.846;2024-03-23T08:45:05;6.70;;;2.45;;
37907;SDS011;23740;51.550;6.846;2024-03-23T08:47:34;7.82;;;2.00;;
37907;SDS011;23740;51.550;6.846;2024-03-23T08:50:00;6.32;;;1.92;;
37907;SDS011;23740;51.550;6.846;2024-03-23T08:52:27;4.18;;;1.52;;
37907;SDS011;23740;51.550;6.846;2024-03-23T08:54:55;5.47;;;1.90;;
37907;SDS011;23740;51.550;6.846;2024-03-23T08:57:24;7.07;;;1.85;;
37907;SDS011;23740;51.550;6.846;2024-03-23T08:59:50;3.63;;;1.80;;
37907;SDS011;23740;51.550;6.846;2024-03-23T09:02:17;6.90;;;1.90;;
37907;SDS011;23740;51.550;6.846;2024-03-23T09:04:43;4.20;;;1.90;;
37907;SDS011;23740;51.550;6.846;2024-03-23T09:07:10;4.10;;;1.67;;
37907;SDS011;23740;51.550;6.846;2024-03-23T09:09:37;3.97;;;1.30;;
37907;SDS011;23740;51.550;6.846;2024-03-23T09:12:04;3.45;;;1.67;;
37907;SDS011;23740;51.550;6.846;2024-03-23T09:14:31;5.80;;;1.95;;
37907;SDS011;23740;51.550;6.846;2024-03-23T09:16:58;4.68;;;1.80;;
37907;SDS011;23740;51.550;6.846;2024-03-23T09:19:26;4.82;;;1.80;;
37907;SDS011;23740;51.550;6.846;2024-03-23T09:21:55;6.38;;;1.55;;
37907;SDS011;23740;51.550;6.846;2024-03-23T09:24:22;4.07;;;1.98;;
37907;SDS011;23740;51.550;6.846;2024-03-23T09:29:14;9.30;;;2.75;;
37907;SDS011;23740;51.550;6.846;2024-03-23T09:31:41;4.13;;;1.92;;
37907;SDS011;23740;51.550;6.846;2024-03-23T09:34:08;3.55;;;1.88;;
37907;SDS011;23740;51.550;6.846;2024-03-23T09:36:34;3.55;;;2.10;;
37907;SDS011;23740;51.550;6.846;2024-03-23T09:39:00;5.90;;;2.58;;
37907;SDS011;23740;51.550;6.846;2024-03-23T09:41:29;4.72;;;1.70;;
37907;SDS011;23740;51.550;6.846;2024-03-23T09:43:55;4.28;;;1.80;;
37907;SDS011;23740;51.550;6.846;2024-03-23T09:46:22;6.13;;;1.83;;
37907;SDS011;23740;51.550;6.846;2024-03-23T09:48:51;6.68;;;1.95;;
37907;SDS011;23740;51.550;6.846;2024-03-23T09:51:17;4.25;;;2.00;;
37907;SDS011;23740;51.550;6.846;2024-03-23T09:53:44;3.13;;;1.67;;
37907;SDS011;23740;51.550;6.846;2024-03-23T09:56:10;3.60;;;1.98;;
37907;SDS011;23740;51.550;6.846;2024-03-23T09:58:36;5.93;;;2.00;;
37907;SDS011;23740;51.550;6.846;2024-03-23T10:01:03;5.68;;;2.17;;
37907;SDS011;23740;51.550;6.846;2024-03-23T10:03:30;3.22;;;1.77;;
37907;SDS011;23740;51.550;6.846;2024-03-23T10:06:00;4.32;;;2.30;;
37907;SDS011;23740;51.550;6.846;2024-03-23T10:08:27;4.47;;;1.73;;
37907;SDS011;23740;51.550;6.846;2024-03-23T10:10:55;3.33;;;1.55;;
37907;SDS011;23740;51.550;6.846;2024-03-23T10:13:24;4.57;;;1.30;;
37907;SDS011;23740;51.550;6.846;2024-03-23T10:15:56;3.28;;;2.00;;
37907;SDS011;23740;51.550;6.846;2024-03-23T10:18:24;5.45;;;1.58;;
37907;SDS011;23740;51.550;6.846;2024-03-23T10:20:51;2.63;;;1.00;;
37907;SDS011;23740;51.550;6.846;2024-03-23T10:23:19;5.43;;;1.55;;
37907;SDS011;23740;51.550;6.846;2024-03-23T10:25:45;2.70;;;1.38;;
37907;SDS011;23740;51.550;6.846;2024-03-23T10:28:12;3.20;;;1.30;;
37907;SDS011;23740;51.550;6.846;2024-03-23T10:30:38;3.97;;;1.60;;
37907;SDS011;23740;51.550;6.846;2024-03-23T10:33:07;3.03;;;1.33;;
37907;SDS011;23740;51.550;6.846;2024-03-23T10:35:34;3.70;;;1.40;;
37907;SDS011;23740;51.550;6.846;2024-03-23T10:38:02;3.33;;;1.85;;
37907;SDS011;23740;51.550;6.846;2024-03-23T10:40:31;5.13;;;1.42;;
37907;SDS011;23740;51.550;6.846;2024-03-23T10:43:00;5.53;;;1.60;;
37907;SDS011;23740;51.550;6.846;2024-03-23T10:45:26;4.22;;;1.55;;
37907;SDS011;23740;51.550;6.846;2024-03-23T10:47:53;7.38;;;1.40;;
37907;SDS011;23740;51.550;6.846;2024-03-23T10:52:46;2.33;;;0.70;;
37907;SDS011;23740;51.550;6.846;2024-03-23T10:55:14;1.02;;;0.52;;
37907;SDS011;23740;51.550;6.846;2024-03-23T10:57:44;1.05;;;0.50;;
37907;SDS011;23740;51.550;6.846;2024-03-23T11:00:13;1.30;;;0.80;;
37907;SDS011;23740;51.550;6.846;2024-03-23T11:02:40;1.25;;;0.52;;
37907;SDS011;23740;51.550;6.846;2024-03-23T11:07:54;2.55;;;1.15;;
37907;SDS011;23740;51.550;6.846;2024-03-23T11:10:27;1.55;;;0.70;;
37907;SDS011;23740;51.550;6.846;2024-03-23T11:12:55;0.93;;;0.60;;
37907;SDS011;23740;51.550;6.846;2024-03-23T11:15:22;1.80;;;0.70;;
37907;SDS011;23740;51.550;6.846;2024-03-23T11:18:04;1.80;;;0.60;;
37907;SDS011;23740;51.550;6.846;2024-03-23T11:20:34;1.65;;;0.80;;
37907;SDS011;23740;51.550;6.846;2024-03-23T11:23:00;2.67;;;0.60;;
37907;SDS011;23740;51.550;6.846;2024-03-23T11:27:53;2.55;;;1.05;;
37907;SDS011;23740;51.550;6.846;2024-03-23T11:30:24;1.15;;;0.63;;
37907;SDS011;23740;51.550;6.846;2024-03-23T11:32:51;1.52;;;1.10;;
37907;SDS011;23740;51.550;6.846;2024-03-23T11:35:26;2.45;;;0.85;;
37907;SDS011;23740;51.550;6.846;2024-03-23T11:38:05;3.25;;;0.90;;
37907;SDS011;23740;51.550;6.846;2024-03-23T11:40:32;3.13;;;1.08;;
37907;SDS011;23740;51.550;6.846;2024-03-23T11:43:00;1.48;;;0.93;;
37907;SDS011;23740;51.550;6.846;2024-03-23T11:45:28;3.42;;;1.20;;
37907;SDS011;23740;51.550;6.846;2024-03-23T11:48:02;2.80;;;0.90;;
37907;SDS011;23740;51.550;6.846;2024-03-23T11:50:32;2.28;;;1.55;;
37907;SDS011;23740;51.550;6.846;2024-03-23T11:53:12;2.15;;;1.20;;
37907;SDS011;23740;51.550;6.846;2024-03-23T11:55:41;2.25;;;1.15;;
37907;SDS011;23740;51.550;6.846;2024-03-23T11:58:08;1.70;;;1.40;;
37907;SDS011;23740;51.550;6.846;2024-03-23T12:00:35;2.00;;;1.23;;
37907;SDS011;23740;51.550;6.846;2024-03-23T12:03:01;2.13;;;1.13;;
37907;SDS011;23740;51.550;6.846;2024-03-23T12:05:28;2.30;;;0.90;;
37907;SDS011;23740;51.550;6.846;2024-03-23T12:07:55;1.75;;;0.98;;
37907;SDS011;23740;51.550;6.846;2024-03-23T12:12:58;2.33;;;0.93;;
37907;SDS011;23740;51.550;6.846;2024-03-23T12:15:26;1.10;;;0.70;;
37907;SDS011;23740;51.550;6.846;2024-03-23T12:18:06;2.70;;;1.10;;
37907;SDS011;23740;51.550;6.846;2024-03-23T12:20:33;2.33;;;0.80;;
37907;SDS011;23740;51.550;6.846;2024-03-23T12:23:04;2.78;;;1.38;;
37907;SDS011;23740;51.550;6.846;2024-03-23T12:25:31;2.67;;;0.90;;
37907;SDS011;23740;51.550;6.846;2024-03-23T12:27:58;3.47;;;1.20;;
37907;SDS011;23740;51.550;6.846;2024-03-23T12:30:25;2.05;;;0.82;;
37907;SDS011;23740;51.550;6.846;2024-03-23T12:32:51;1.33;;;0.52;;
37907;SDS011;23740;51.550;6.846;2024-03-23T12:35:18;1.63;;;0.55;;
37907;SDS011;23740;51.550;6.846;2024-03-23T12:37:44;1.08;;;0.60;;
37907;SDS011;23740;51.550;6.846;2024-03-23T12:40:11;2.47;;;0.60;;
37907;SDS011;23740;51.550;6.846;2024-03-23T12:42:37;4.45;;;1.40;;
37907;SDS011;23740;51.550;6.846;2024-03-23T12:47:31;2.13;;;0.88;;
37907;SDS011;23740;51.550;6.846;2024-03-23T12:52:23;3.00;;;0.70;;
37907;SDS011;23740;51.550;6.846;2024-03-23T12:54:54;4.25;;;1.15;;
37907;SDS011;23740;51.550;6.846;2024-03-23T12:57:22;1.88;;;0.88;;
37907;SDS011;23740;51.550;6.846;2024-03-23T12:59:49;2.13;;;0.77;;
37907;SDS011;23740;51.550;6.846;2024-03-23T13:02:17;3.40;;;1.20;;
37907;SDS011;23740;51.550;6.846;2024-03-23T13:04:45;3.33;;;1.20;;
37907;SDS011;23740;51.550;6.846;2024-03-23T13:07:12;1.77;;;1.10;;
37907;SDS011;23740;51.550;6.846;2024-03-23T13:12:05;2.17;;;0.95;;
37907;SDS011;23740;51.550;6.846;2024-03-23T13:14:32;1.35;;;0.85;;
37907;SDS011;23740;51.550;6.846;2024-03-23T13:16:58;1.63;;;1.10;;
37907;SDS011;23740;51.550;6.846;2024-03-23T13:19:25;1.75;;;0.82;;
37907;SDS011;23740;51.550;6.846;2024-03-23T13:21:53;1.75;;;0.90;;
37907;SDS011;23740;51.550;6.846;2024-03-23T13:24:21;3.20;;;0.75;;
37907;SDS011;23740;51.550;6.846;2024-03-23T13:26:49;1.08;;;0.77;;
37907;SDS011;23740;51.550;6.846;2024-03-23T13:29:16;1.60;;;0.73;;
37907;SDS011;23740;51.550;6.846;2024-03-23T13:31:42;1.13;;;0.77;;
37907;SDS011;23740;51.550;6.846;2024-03-23T13:34:09;2.20;;;0.85;;
37907;SDS011;23740;51.550;6.846;2024-03-23T13:36:35;2.35;;;1.00;;
37907;SDS011;23740;51.550;6.846;2024-03-23T13:39:02;3.05;;;1.17;;
37907;SDS011;23740;51.550;6.846;2024-03-23T13:41:31;2.15;;;1.00;;
37907;SDS011;23740;51.550;6.846;2024-03-23T13:46:24;2.08;;;0.98;;
37907;SDS011;23740;51.550;6.846;2024-03-23T13:48:51;3.13;;;0.82;;
37907;SDS011;23740;51.550;6.846;2024-03-23T13:51:22;3.00;;;1.20;;
37907;SDS011;23740;51.550;6.846;2024-03-23T13:53:50;2.72;;;1.08;;
37907;SDS011;23740;51.550;6.846;2024-03-23T13:56:16;3.53;;;0.98;;
37907;SDS011;23740;51.550;6.846;2024-03-23T13:58:42;4.55;;;1.35;;
37907;SDS011;23740;51.550;6.846;2024-03-23T14:01:13;3.47;;;0.50;;
37907;SDS011;23740;51.550;6.846;2024-03-23T14:03:40;2.05;;;0.55;;
37907;SDS011;23740;51.550;6.846;2024-03-23T14:06:07;2.83;;;0.63;;
37907;SDS011;23740;51.550;6.846;2024-03-23T14:08:34;0.55;;;0.40;;
37907;SDS011;23740;51.550;6.846;2024-03-23T14:11:01;3.15;;;0.80;;
37907;SDS011;23740;51.550;6.846;2024-03-23T14:13:29;1.02;;;0.60;;
37907;SDS011;23740;51.550;6.846;2024-03-23T14:15:55;3.33;;;1.13;;
37907;SDS011;23740;51.550;6.846;2024-03-23T14:18:23;3.17;;;0.70;;
37907;SDS011;23740;51.550;6.846;2024-03-23T14:20:49;1.05;;;0.93;;
37907;SDS011;23740;51.550;6.846;2024-03-23T14:23:16;0.75;;;0.50;;
37907;SDS011;23740;51.550;6.846;2024-03-23T14:28:09;2.17;;;0.75;;
37907;SDS011;23740;51.550;6.846;2024-03-23T14:30:40;3.08;;;1.02;;
37907;SDS011;23740;51.550;6.846;2024-03-23T14:33:07;2.35;;;0.80;;
37907;SDS011;23740;51.550;6.846;2024-03-23T14:35:34;1.40;;;0.70;;
37907;SDS011;23740;51.550;6.846;2024-03-23T14:38:00;1.88;;;0.88;;
37907;SDS011;23740;51.550;6.846;2024-03-23T14:40:26;2.10;;;0.95;;
37907;SDS011;23740;51.550;6.846;2024-03-23T14:45:19;1.48;;;0.75;;
37907;SDS011;23740;51.550;6.846;2024-03-23T14:47:46;2.33;;;0.75;;
37907;SDS011;23740;51.550;6.846;2024-03-23T14:50:12;1.02;;;0.47;;
37907;SDS011;23740;51.550;6.846;2024-03-23T14:52:42;1.50;;;0.63;;
37907;SDS011;23740;51.550;6.846;2024-03-23T14:55:09;1.75;;;1.00;;
37907;SDS011;23740;51.550;6.846;2024-03-23T14:57:37;0.77;;;0.73;;
37907;SDS011;23740;51.550;6.846;2024-03-23T15:00:06;4.70;;;0.57;;
37907;SDS011;23740;51.550;6.846;2024-03-23T15:02:33;2.42;;;0.77;;
37907;SDS011;23740;51.550;6.846;2024-03-23T15:05:00;2.40;;;0.93;;
37907;SDS011;23740;51.550;6.846;2024-03-23T15:07:32;1.48;;;0.50;;
37907;SDS011;23740;51.550;6.846;2024-03-23T15:09:59;1.00;;;0.50;;
37907;SDS011;23740;51.550;6.846;2024-03-23T15:12:25;1.85;;;0.80;;
37907;SDS011;23740;51.550;6.846;2024-03-23T15:14:51;0.80;;;0.50;;
37907;SDS011;23740;51.550;6.846;2024-03-23T15:17:18;3.35;;;0.60;;
37907;SDS011;23740;51.550;6.846;2024-03-23T15:19:44;1.55;;;0.52;;
37907;SDS011;23740;51.550;6.846;2024-03-23T15:22:10;2.72;;;0.93;;
37907;SDS011;23740;51.550;6.846;2024-03-23T15:27:04;2.50;;;0.73;;
37907;SDS011;23740;51.550;6.846;2024-03-23T15:29:33;2.08;;;1.00;;
37907;SDS011;23740;51.550;6.846;2024-03-23T15:31:59;3.13;;;0.75;;
37907;SDS011;23740;51.550;6.846;2024-03-23T15:34:25;1.02;;;0.93;;
37907;SDS011;23740;51.550;6.846;2024-03-23T15:36:51;2.75;;;0.65;;
37907;SDS011;23740;51.550;6.846;2024-03-23T15:39:18;1.67;;;0.93;;
37907;SDS011;23740;51.550;6.846;2024-03-23T15:41:44;2.05;;;0.77;;
37907;SDS011;23740;51.550;6.846;2024-03-23T15:44:12;1.85;;;0.98;;
37907;SDS011;23740;51.550;6.846;2024-03-23T15:46:38;1.85;;;0.80;;
37907;SDS011;23740;51.550;6.846;2024-03-23T15:49:04;1.50;;;0.82;;
37907;SDS011;23740;51.550;6.846;2024-03-23T15:51:31;1.80;;;0.68;;
37907;SDS011;23740;51.550;6.846;2024-03-23T15:54:00;1.60;;;0.80;;
37907;SDS011;23740;51.550;6.846;2024-03-23T15:56:26;1.08;;;0.88;;
37907;SDS011;23740;51.550;6.846;2024-03-23T15:58:53;4.90;;;1.17;;
37907;SDS011;23740;51.550;6.846;2024-03-23T16:01:20;0.85;;;0.85;;
37907;SDS011;23740;51.550;6.846;2024-03-23T16:03:47;3.17;;;1.00;;
37907;SDS011;23740;51.550;6.846;2024-03-23T16:06:13;1.50;;;0.73;;
37907;SDS011;23740;51.550;6.846;2024-03-23T16:08:40;1.73;;;0.63;;
37907;SDS011;23740;51.550;6.846;2024-03-23T16:11:07;2.22;;;0.93;;
37907;SDS011;23740;51.550;6.846;2024-03-23T16:13:34;1.90;;;1.13;;
37907;SDS011;23740;51.550;6.846;2024-03-23T16:16:01;2.80;;;0.90;;
37907;SDS011;23740;51.550;6.846;2024-03-23T16:18:29;2.88;;;1.00;;
37907;SDS011;23740;51.550;6.846;2024-03-23T16:20:56;2.95;;;0.90;;
37907;SDS011;23740;51.550;6.846;2024-03-23T16:23:24;4.13;;;0.90;;
37907;SDS011;23740;51.550;6.846;2024-03-23T16:25:51;2.53;;;1.02;;
37907;SDS011;23740;51.550;6.846;2024-03-23T16:28:22;2.17;;;1.25;;
37907;SDS011;23740;51.550;6.846;2024-03-23T16:30:53;1.67;;;1.30;;
37907;SDS011;23740;51.550;6.846;2024-03-23T16:33:20;2.15;;;0.88;;
37907;SDS011;23740;51.550;6.846;2024-03-23T16:35:54;3.25;;;0.93;;
37907;SDS011;23740;51.550;6.846;2024-03-23T16:38:21;1.35;;;1.10;;